createdAt,value
2018-04-24T00:00:35.594Z,9.67
2018-04-24T00:01:35.780Z,9.75
2018-04-24T00:02:35.968Z,9.73
2018-04-24T00:03:36.155Z,9.66
2018-04-24T00:04:36.342Z,9.70
2018-04-24T00:05:36.530Z,9.60
2018-04-24T00:06:36.717Z,9.63
2018-04-24T00:07:36.911Z,9.67
2018-04-24T00:08:37.095Z,9.60
2018-04-24T00:09:37.278Z,9.59
2018-04-24T00:10:37.466Z,9.60
2018-04-24T00:11:37.650Z,9.47
2018-04-24T00:12:37.838Z,9.55
2018-04-24T00:13:38.026Z,9.59
2018-04-24T00:14:38.211Z,9.54
2018-04-24T00:15:38.396Z,9.57
2018-04-24T00:16:38.584Z,9.57
2018-04-24T00:17:38.774Z,9.60
2018-04-24T00:18:38.955Z,9.60
2018-04-24T00:19:39.142Z,9.54
2018-04-24T00:20:39.328Z,9.60
2018-04-24T00:21:39.514Z,9.66
2018-04-24T00:22:39.702Z,9.62
2018-04-24T00:23:39.890Z,9.60
2018-04-24T00:24:40.078Z,9.60
2018-04-24T00:25:40.262Z,9.62
2018-04-24T00:26:40.450Z,9.55
2018-04-24T00:27:40.635Z,9.67
2018-04-24T00:28:40.821Z,9.62
2018-04-24T00:29:41.018Z,9.65
2018-04-24T00:30:41.194Z,9.54
2018-04-24T00:31:41.381Z,9.62
2018-04-24T00:32:41.569Z,9.66
2018-04-24T00:33:41.755Z,9.63
2018-04-24T00:34:41.942Z,9.66
2018-04-24T00:35:42.129Z,9.66
2018-04-24T00:36:42.321Z,9.60
2018-04-24T00:37:42.504Z,9.62
2018-04-24T00:38:42.690Z,9.63
2018-04-24T00:39:42.876Z,9.62
2018-04-24T00:40:43.063Z,9.52
2018-04-24T00:41:43.250Z,9.62
2018-04-24T00:42:43.441Z,9.60
2018-04-24T00:43:43.625Z,9.50
2018-04-24T00:44:43.812Z,9.42
2018-04-24T00:45:44.028Z,9.47
2018-04-24T00:46:44.187Z,9.50
2018-04-24T00:47:44.372Z,9.36
2018-04-24T00:48:44.559Z,9.29
2018-04-24T00:49:44.745Z,9.22
2018-04-24T00:50:44.935Z,9.22
2018-04-24T00:51:45.119Z,9.18
2018-04-24T00:52:45.304Z,9.12
2018-04-24T00:53:45.493Z,9.14
2018-04-24T00:54:45.680Z,9.09
2018-04-24T00:55:45.867Z,9.03
2018-04-24T00:56:46.053Z,9.16
2018-04-24T00:57:46.240Z,9.19
2018-04-24T00:58:46.429Z,9.27
2018-04-24T00:59:46.613Z,9.41
2018-04-24T01:00:46.799Z,9.42
2018-04-24T01:01:46.985Z,9.50
2018-04-24T01:02:47.173Z,9.59
2018-04-24T01:03:47.358Z,9.65
2018-04-24T01:04:47.544Z,9.59
2018-04-24T01:05:47.731Z,9.60
2018-04-24T01:06:47.992Z,9.72
2018-04-24T01:07:48.106Z,9.65
2018-04-24T01:08:48.293Z,9.66
2018-04-24T01:09:48.479Z,9.55
2018-04-24T01:10:48.666Z,9.57
2018-04-24T01:11:48.851Z,9.48
2018-04-24T01:12:49.038Z,9.48
2018-04-24T01:13:49.226Z,9.29
2018-04-24T01:14:49.411Z,9.14
2018-04-24T01:15:49.601Z,9.08
2018-04-24T01:16:49.786Z,9.08
2018-04-24T01:17:49.975Z,9.09
2018-04-24T01:18:50.161Z,9.14
2018-04-24T01:19:50.346Z,9.14
2018-04-24T01:20:50.532Z,9.09
2018-04-24T01:21:50.718Z,9.16
2018-04-24T01:22:50.906Z,9.12
2018-04-24T01:23:51.092Z,9.04
2018-04-24T01:24:51.279Z,9.01
2018-04-24T01:25:51.464Z,9.04
2018-04-24T01:26:51.652Z,8.99
2018-04-24T01:27:51.838Z,8.95
2018-04-24T01:28:52.027Z,8.88
2018-04-24T01:29:52.211Z,8.75
2018-04-24T01:30:52.401Z,8.70
2018-04-24T01:31:52.588Z,8.62
2018-04-24T01:32:52.775Z,8.50
2018-04-24T01:33:52.960Z,8.53
2018-04-24T01:34:53.148Z,8.52
2018-04-24T01:35:53.334Z,8.50
2018-04-24T01:36:53.523Z,8.62
2018-04-24T01:37:53.707Z,8.49
2018-04-24T01:38:53.896Z,8.47
2018-04-24T01:39:54.079Z,8.47
2018-04-24T01:40:54.268Z,8.52
2018-04-24T01:41:54.457Z,8.59
2018-04-24T01:42:54.639Z,8.55
2018-04-24T01:43:54.829Z,8.62
2018-04-24T01:44:55.015Z,8.60
2018-04-24T01:45:55.198Z,8.57
2018-04-24T01:46:55.385Z,8.60
2018-04-24T01:47:55.570Z,8.65
2018-04-24T01:48:55.757Z,8.62
2018-04-24T01:49:55.944Z,8.83
2018-04-24T01:50:56.130Z,8.85
2018-04-24T01:51:56.317Z,8.90
2018-04-24T01:52:56.503Z,8.99
2018-04-24T01:53:56.689Z,9.09
2018-04-24T01:54:56.876Z,9.19
2018-04-24T01:55:57.064Z,9.18
2018-04-24T01:56:57.249Z,9.36
2018-04-24T01:57:57.435Z,9.42
2018-04-24T01:58:57.623Z,9.36
2018-04-24T01:59:57.808Z,9.42
2018-04-24T02:00:57.999Z,9.41
2018-04-24T02:01:58.181Z,9.37
2018-04-24T02:02:58.366Z,9.42
2018-04-24T02:03:58.551Z,9.45
2018-04-24T02:04:58.736Z,9.42
2018-04-24T02:05:58.922Z,9.52
2018-04-24T02:06:59.109Z,9.40
2018-04-24T02:07:59.297Z,9.45
2018-04-24T02:08:59.482Z,9.48
2018-04-24T02:09:59.669Z,9.52
2018-04-24T02:10:59.853Z,9.37
2018-04-24T02:12:00.040Z,9.44
2018-04-24T02:13:00.226Z,9.40
2018-04-24T02:14:00.411Z,9.52
2018-04-24T02:15:00.600Z,9.36
2018-04-24T02:16:00.783Z,9.42
2018-04-24T02:17:00.969Z,9.42
2018-04-24T02:18:01.155Z,9.32
2018-04-24T02:19:01.342Z,9.22
2018-04-24T02:20:01.527Z,9.16
2018-04-24T02:21:01.714Z,9.01
2018-04-24T02:22:01.900Z,8.85
2018-04-24T02:23:02.086Z,8.63
2018-04-24T02:24:02.273Z,8.68
2018-04-24T02:25:02.487Z,8.70
2018-04-24T02:26:02.645Z,8.59
2018-04-24T02:27:02.831Z,8.60
2018-04-24T02:28:03.021Z,8.52
2018-04-24T02:29:03.206Z,8.52
2018-04-24T02:30:03.392Z,8.49
2018-04-24T02:31:03.576Z,8.41
2018-04-24T02:32:03.765Z,8.38
2018-04-24T02:33:03.950Z,8.34
2018-04-24T02:34:04.138Z,8.26
2018-04-24T02:35:04.323Z,8.24
2018-04-24T02:36:04.512Z,8.26
2018-04-24T02:37:04.695Z,8.17
2018-04-24T02:38:04.883Z,8.13
2018-04-24T02:39:05.263Z,8.06
2018-04-24T02:40:05.293Z,8.16
2018-04-24T02:41:05.406Z,8.13
2018-04-24T02:42:05.593Z,8.17
2018-04-24T02:43:05.777Z,8.17
2018-04-24T02:44:05.965Z,8.13
2018-04-24T02:45:06.151Z,8.21
2018-04-24T02:46:06.337Z,8.26
2018-04-24T02:47:06.523Z,8.21
2018-04-24T02:48:06.710Z,8.21
2018-04-24T02:49:06.895Z,8.32
2018-04-24T02:50:07.082Z,8.24
2018-04-24T02:51:07.268Z,8.32
2018-04-24T02:52:07.540Z,8.23
2018-04-24T02:53:07.638Z,8.29
2018-04-24T02:54:07.823Z,8.26
2018-04-24T02:55:08.009Z,8.12
2018-04-24T02:56:08.194Z,8.16
2018-04-24T02:57:08.380Z,8.06
2018-04-24T02:58:08.565Z,8.06
2018-04-24T02:59:08.750Z,8.13
2018-04-24T03:00:08.937Z,8.09
2018-04-24T03:01:09.127Z,8.05
2018-04-24T03:02:09.310Z,7.95
2018-04-24T03:03:09.497Z,8.04
2018-04-24T03:04:09.686Z,8.01
2018-04-24T03:05:09.868Z,8.05
2018-04-24T03:06:10.054Z,7.94
2018-04-24T03:07:10.239Z,8.09
2018-04-24T03:08:10.425Z,8.06
2018-04-24T03:09:10.612Z,8.09
2018-04-24T03:10:10.798Z,7.98
2018-04-24T03:11:10.984Z,8.06
2018-04-24T03:12:11.172Z,8.10
2018-04-24T03:13:11.359Z,8.17
2018-04-24T03:14:11.540Z,8.21
2018-04-24T03:15:11.725Z,8.39
2018-04-24T03:16:11.913Z,8.37
2018-04-24T03:17:12.098Z,8.50
2018-04-24T03:18:12.283Z,8.55
2018-04-24T03:19:12.468Z,8.59
2018-04-24T03:20:12.653Z,8.68
2018-04-24T03:21:12.837Z,8.65
2018-04-24T03:22:13.024Z,8.56
2018-04-24T03:23:13.210Z,8.62
2018-04-24T03:24:13.395Z,8.55
2018-04-24T03:25:13.583Z,8.60
2018-04-24T03:26:13.766Z,8.60
2018-04-24T03:27:13.953Z,8.56
2018-04-24T03:28:14.140Z,8.56
2018-04-24T03:29:14.326Z,8.53
2018-04-24T03:30:14.511Z,8.62
2018-04-24T03:31:14.696Z,8.55
2018-04-24T03:32:14.882Z,8.59
2018-04-24T03:33:15.079Z,8.59
2018-04-24T03:34:15.254Z,8.60
2018-04-24T03:35:15.439Z,8.59
2018-04-24T03:36:15.634Z,8.59
2018-04-24T03:37:15.811Z,8.59
2018-04-24T03:38:15.998Z,8.62
2018-04-24T03:39:16.184Z,8.63
2018-04-24T03:40:16.371Z,8.67
2018-04-24T03:41:16.559Z,8.57
2018-04-24T03:42:16.744Z,8.67
2018-04-24T03:43:16.931Z,8.67
2018-04-24T03:44:17.116Z,8.74
2018-04-24T03:45:17.302Z,8.62
2018-04-24T03:46:17.491Z,8.74
2018-04-24T03:47:17.676Z,8.71
2018-04-24T03:48:17.863Z,8.71
2018-04-24T03:49:18.052Z,8.81
2018-04-24T03:50:18.234Z,8.86
2018-04-24T03:51:18.420Z,8.78
2018-04-24T03:52:18.607Z,8.78
2018-04-24T03:53:18.791Z,8.81
2018-04-24T03:54:18.977Z,8.78
2018-04-24T03:55:19.165Z,8.80
2018-04-24T03:56:19.348Z,8.86
2018-04-24T03:57:19.596Z,8.90
2018-04-24T03:58:19.719Z,8.89
2018-04-24T03:59:19.908Z,8.89
2018-04-24T04:00:20.095Z,8.92
2018-04-24T04:01:20.282Z,8.96
2018-04-24T04:02:20.467Z,8.92
2018-04-24T04:03:20.654Z,8.93
2018-04-24T04:04:20.839Z,8.98
2018-04-24T04:05:21.024Z,9.01
2018-04-24T04:06:21.210Z,9.04
2018-04-24T04:07:21.397Z,9.12
2018-04-24T04:08:21.581Z,9.09
2018-04-24T04:09:21.767Z,9.18
2018-04-24T04:10:21.952Z,9.12
2018-04-24T04:11:22.193Z,9.04
2018-04-24T04:12:22.318Z,9.12
2018-04-24T04:13:22.504Z,9.15
2018-04-24T04:14:22.691Z,9.06
2018-04-24T04:15:22.873Z,9.11
2018-04-24T04:16:23.058Z,9.14
2018-04-24T04:17:23.244Z,9.16
2018-04-24T04:18:23.438Z,9.26
2018-04-24T04:19:23.616Z,9.36
2018-04-24T04:20:23.803Z,9.42
2018-04-24T04:21:23.994Z,9.37
2018-04-24T04:22:24.200Z,9.41
2018-04-24T04:23:24.361Z,9.44
2018-04-24T04:24:24.546Z,9.52
2018-04-24T04:25:24.732Z,9.57
2018-04-24T04:26:24.918Z,9.60
2018-04-24T04:27:25.104Z,9.73
2018-04-24T04:28:25.289Z,9.77
2018-04-24T04:29:25.478Z,9.93
2018-04-24T04:30:25.664Z,9.90
2018-04-24T04:31:25.850Z,10.02
2018-04-24T04:32:26.035Z,9.99
2018-04-24T04:33:26.224Z,10.03
2018-04-24T04:34:26.411Z,10.09
2018-04-24T04:35:26.598Z,10.02
2018-04-24T04:36:26.784Z,9.94
2018-04-24T04:37:26.972Z,9.85
2018-04-24T04:38:27.161Z,9.83
2018-04-24T04:39:27.345Z,9.60
2018-04-24T04:40:27.533Z,9.34
2018-04-24T04:41:27.765Z,9.40
2018-04-24T04:42:27.905Z,9.51
2018-04-24T04:43:28.094Z,9.63
2018-04-24T04:44:28.282Z,9.57
2018-04-24T04:45:28.469Z,9.70
2018-04-24T04:46:28.653Z,9.67
2018-04-24T04:47:28.839Z,9.57
2018-04-24T04:48:29.026Z,9.59
2018-04-24T04:49:29.214Z,9.62
2018-04-24T04:50:29.399Z,9.66
2018-04-24T04:51:29.588Z,9.72
2018-04-24T04:52:29.776Z,9.66
2018-04-24T04:53:29.962Z,9.75
2018-04-24T04:54:30.150Z,9.73
2018-04-24T04:55:30.337Z,9.88
2018-04-24T04:56:30.522Z,9.91
2018-04-24T04:57:30.710Z,9.90
2018-04-24T04:58:30.898Z,10.01
2018-04-24T04:59:31.092Z,10.06
2018-04-24T05:00:31.273Z,10.12
2018-04-24T05:01:31.461Z,10.12
2018-04-24T05:02:31.648Z,10.20
2018-04-24T05:03:31.835Z,10.34
2018-04-24T05:04:32.025Z,10.42
2018-04-24T05:05:32.211Z,10.43
2018-04-24T05:06:32.399Z,10.54
2018-04-24T05:07:32.585Z,10.64
2018-04-24T05:08:32.774Z,10.64
2018-04-24T05:09:32.960Z,10.64
2018-04-24T05:10:33.149Z,10.76
2018-04-24T05:11:33.340Z,10.87
2018-04-24T05:12:33.524Z,11.11
2018-04-24T05:13:33.712Z,11.20
2018-04-24T05:14:33.900Z,11.16
2018-04-24T05:15:34.090Z,11.19
2018-04-24T05:16:34.277Z,11.19
2018-04-24T05:17:34.465Z,11.12
2018-04-24T05:18:34.653Z,10.91
2018-04-24T05:19:34.840Z,10.97
2018-04-24T05:20:35.027Z,11.04
2018-04-24T05:21:35.215Z,10.95
2018-04-24T05:22:35.403Z,10.79
2018-04-24T05:23:35.591Z,11.00
2018-04-24T05:24:35.779Z,11.09
2018-04-24T05:25:35.967Z,11.15
2018-04-24T05:26:36.159Z,11.31
2018-04-24T05:27:36.344Z,11.49
2018-04-24T05:28:36.531Z,11.51
2018-04-24T05:29:36.721Z,11.56
2018-04-24T05:30:36.909Z,11.54
2018-04-24T05:31:37.096Z,11.52
2018-04-24T05:32:37.281Z,11.64
2018-04-24T05:33:37.471Z,11.52
2018-04-24T05:34:37.662Z,11.79
2018-04-24T05:35:37.850Z,11.71
2018-04-24T05:36:38.040Z,11.69
2018-04-24T05:37:38.228Z,11.69
2018-04-24T05:38:38.416Z,11.67
2018-04-24T05:39:38.665Z,11.67
2018-04-24T05:40:38.793Z,11.64
2018-04-24T05:41:38.982Z,11.70
2018-04-24T05:42:39.172Z,11.61
2018-04-24T05:43:39.360Z,11.89
2018-04-24T05:44:39.553Z,12.41
2018-04-24T05:45:39.739Z,12.65
2018-04-24T05:46:39.928Z,12.73
2018-04-24T05:47:40.119Z,13.17
2018-04-24T05:48:40.307Z,13.54
2018-04-24T05:49:40.499Z,13.80
2018-04-24T05:50:40.687Z,14.09
2018-04-24T05:51:40.880Z,14.21
2018-04-24T05:52:41.071Z,14.30
2018-04-24T05:53:41.259Z,14.15
2018-04-24T05:54:41.456Z,14.33
2018-04-24T05:55:41.645Z,14.11
2018-04-24T05:56:41.842Z,13.82
2018-04-24T05:57:42.027Z,13.80
2018-04-24T05:58:42.219Z,14.21
2018-04-24T05:59:42.411Z,14.52
2018-04-24T06:00:42.607Z,14.83
2018-04-24T06:01:42.795Z,14.86
2018-04-24T06:02:42.989Z,14.79
2018-04-24T06:03:43.184Z,14.87
2018-04-24T06:04:43.381Z,15.07
2018-04-24T06:05:43.572Z,15.11
2018-04-24T06:06:43.762Z,15.30
2018-04-24T06:07:43.958Z,15.62
2018-04-24T06:08:44.147Z,15.59
2018-04-24T06:09:44.341Z,15.47
2018-04-24T06:10:44.535Z,15.10
2018-04-24T06:11:44.728Z,15.44
2018-04-24T06:12:44.923Z,15.50
2018-04-24T06:13:45.122Z,15.62
2018-04-24T06:14:45.314Z,15.76
2018-04-24T06:15:45.511Z,15.63
2018-04-24T06:16:45.708Z,15.56
2018-04-24T06:17:45.901Z,15.60
2018-04-24T06:18:46.096Z,15.59
2018-04-24T06:19:46.291Z,15.29
2018-04-24T06:20:46.489Z,15.10
2018-04-24T06:21:46.682Z,15.35
2018-04-24T06:22:46.880Z,15.30
2018-04-24T06:23:47.074Z,15.07
2018-04-24T06:24:47.273Z,14.64
2018-04-24T06:25:47.467Z,15.05
2018-04-24T06:26:47.665Z,15.30
2018-04-24T06:27:47.859Z,15.25
2018-04-24T06:28:48.059Z,15.32
2018-04-24T06:29:48.254Z,15.62
2018-04-24T06:30:48.453Z,15.83
2018-04-24T06:31:48.649Z,15.95
2018-04-24T06:32:48.846Z,16.40
2018-04-24T06:33:49.044Z,16.74
2018-04-24T06:34:49.242Z,16.64
2018-04-24T06:35:49.441Z,16.90
2018-04-24T06:36:49.639Z,17.07
2018-04-24T06:37:49.837Z,17.59
2018-04-24T06:38:50.040Z,17.94
2018-04-24T06:39:50.232Z,18.24
2018-04-24T06:40:50.431Z,18.28
2018-04-24T06:41:50.630Z,18.03
2018-04-24T06:42:50.828Z,17.59
2018-04-24T06:43:51.028Z,17.68
2018-04-24T06:44:51.227Z,17.56
2018-04-24T06:45:51.426Z,17.73
2018-04-24T06:46:51.626Z,17.63
2018-04-24T06:47:51.842Z,17.57
2018-04-24T06:48:52.028Z,17.35
2018-04-24T06:49:52.221Z,17.37
2018-04-24T06:50:52.420Z,17.47
2018-04-24T06:51:52.622Z,17.37
2018-04-24T06:52:52.817Z,17.14
2018-04-24T06:53:53.017Z,17.24
2018-04-24T06:54:53.216Z,17.31
2018-04-24T06:55:53.418Z,17.17
2018-04-24T06:56:53.613Z,17.27
2018-04-24T06:57:53.812Z,17.02
2018-04-24T06:58:54.011Z,16.72
2018-04-24T06:59:54.209Z,16.82
2018-04-24T07:00:54.454Z,16.76
2018-04-24T07:01:54.604Z,16.94
2018-04-24T07:02:54.800Z,16.28
2018-04-24T07:03:55.000Z,15.83
2018-04-24T07:04:55.195Z,16.09
2018-04-24T07:05:55.392Z,16.36
2018-04-24T07:06:55.589Z,16.52
2018-04-24T07:07:55.784Z,16.29
2018-04-24T07:08:55.982Z,15.51
2018-04-24T07:09:56.179Z,15.68
2018-04-24T07:10:56.374Z,15.41
2018-04-24T07:11:56.571Z,15.54
2018-04-24T07:12:56.768Z,16.00
2018-04-24T07:13:56.961Z,16.34
2018-04-24T07:14:57.156Z,16.59
2018-04-24T07:15:57.353Z,16.77
2018-04-24T07:16:57.593Z,16.58
2018-04-24T07:17:57.747Z,16.92
2018-04-24T07:18:57.942Z,16.92
2018-04-24T07:19:58.140Z,16.70
2018-04-24T07:20:58.336Z,16.33
2018-04-24T07:21:58.532Z,16.18
2018-04-24T07:22:58.731Z,16.22
2018-04-24T07:23:58.929Z,16.59
2018-04-24T07:24:59.125Z,16.80
2018-04-24T07:25:59.321Z,16.84
2018-04-24T07:26:59.516Z,17.10
2018-04-24T07:27:59.715Z,16.82
2018-04-24T07:28:59.911Z,16.79
2018-04-24T07:30:00.108Z,16.62
2018-04-24T07:31:00.305Z,17.01
2018-04-24T07:32:00.502Z,17.09
2018-04-24T07:33:00.727Z,17.06
2018-04-24T07:34:00.899Z,16.72
2018-04-24T07:35:01.095Z,16.55
2018-04-24T07:36:01.294Z,16.74
2018-04-24T07:37:01.492Z,16.55
2018-04-24T07:38:01.693Z,16.33
2018-04-24T07:39:01.887Z,16.55
2018-04-24T07:40:02.089Z,16.28
2018-04-24T07:41:02.289Z,15.98
2018-04-24T07:42:02.482Z,16.55
2018-04-24T07:43:02.679Z,16.76
2018-04-24T07:44:02.877Z,16.65
2018-04-24T07:45:03.076Z,17.22
2018-04-24T07:46:03.276Z,17.66
2018-04-24T07:47:03.474Z,17.31
2018-04-24T07:48:03.671Z,17.57
2018-04-24T07:49:03.874Z,17.83
2018-04-24T07:50:04.074Z,17.22
2018-04-24T07:51:04.272Z,16.82
2018-04-24T07:52:04.472Z,16.80
2018-04-24T07:53:04.668Z,16.73
2018-04-24T07:54:04.869Z,16.92
2018-04-24T07:55:05.071Z,17.50
2018-04-24T07:56:05.269Z,17.73
2018-04-24T07:57:05.470Z,17.66
2018-04-24T07:58:05.670Z,17.49
2018-04-24T07:59:05.871Z,17.02
2018-04-24T08:00:06.072Z,17.43
2018-04-24T08:01:06.271Z,17.38
2018-04-24T08:02:06.471Z,16.92
2018-04-24T08:03:06.669Z,16.84
2018-04-24T08:04:06.869Z,17.45
2018-04-24T08:05:07.073Z,17.25
2018-04-24T08:06:07.270Z,17.97
2018-04-24T08:07:07.471Z,18.48
2018-04-24T08:08:07.695Z,18.91
2018-04-24T08:09:07.871Z,18.27
2018-04-24T08:10:08.073Z,17.68
2018-04-24T08:11:08.278Z,17.34
2018-04-24T08:12:08.474Z,17.34
2018-04-24T08:13:08.675Z,16.97
2018-04-24T08:14:08.875Z,16.90
2018-04-24T08:15:09.075Z,17.27
2018-04-24T08:16:09.281Z,18.01
2018-04-24T08:17:09.476Z,18.66
2018-04-24T08:18:09.676Z,18.66
2018-04-24T08:19:09.876Z,18.93
2018-04-24T08:20:10.078Z,19.32
2018-04-24T08:21:10.279Z,19.89
2018-04-24T08:22:10.480Z,19.93
2018-04-24T08:23:10.680Z,19.92
2018-04-24T08:24:10.881Z,19.37
2018-04-24T08:25:11.085Z,19.13
2018-04-24T08:26:11.286Z,19.53
2018-04-24T08:27:11.485Z,19.49
2018-04-24T08:28:11.688Z,18.21
2018-04-24T08:29:11.888Z,18.11
2018-04-24T08:30:12.091Z,18.23
2018-04-24T08:31:12.292Z,18.39
2018-04-24T08:32:12.493Z,18.42
2018-04-24T08:33:12.697Z,18.60
2018-04-24T08:34:12.900Z,18.34
2018-04-24T08:35:13.099Z,18.67
2018-04-24T08:36:13.302Z,18.58
2018-04-24T08:37:13.505Z,17.75
2018-04-24T08:38:13.705Z,18.17
2018-04-24T08:39:13.907Z,18.74
2018-04-24T08:40:14.107Z,19.22
2018-04-24T08:41:14.312Z,18.86
2018-04-24T08:42:14.509Z,18.96
2018-04-24T08:43:14.710Z,19.20
2018-04-24T08:44:14.912Z,18.94
2018-04-24T08:45:15.114Z,19.13
2018-04-24T08:46:15.374Z,19.04
2018-04-24T08:47:15.517Z,19.08
2018-04-24T08:48:15.753Z,19.45
2018-04-24T08:49:15.923Z,19.71
2018-04-24T08:50:16.119Z,19.79
2018-04-24T08:51:16.320Z,19.67
2018-04-24T08:52:16.523Z,19.96
2018-04-24T08:53:16.721Z,18.51
2018-04-24T08:54:16.923Z,18.89
2018-04-24T08:55:17.127Z,19.31
2018-04-24T08:56:17.400Z,19.67
2018-04-24T08:57:17.527Z,19.92
2018-04-24T08:58:17.726Z,20.17
2018-04-24T08:59:17.933Z,19.86
2018-04-24T09:00:18.130Z,19.19
2018-04-24T09:01:18.331Z,19.38
2018-04-24T09:02:18.533Z,19.53
2018-04-24T09:03:18.732Z,19.53
2018-04-24T09:04:18.986Z,19.56
2018-04-24T09:05:19.133Z,19.31
2018-04-24T09:06:19.334Z,19.42
2018-04-24T09:07:19.535Z,19.19
2018-04-24T09:08:19.734Z,19.37
2018-04-24T09:09:19.933Z,19.54
2018-04-24T09:10:20.132Z,20.00
2018-04-24T09:11:20.333Z,20.42
2018-04-24T09:12:20.531Z,20.67
2018-04-24T09:13:20.742Z,20.70
2018-04-24T09:14:20.930Z,20.61
2018-04-24T09:15:21.129Z,20.49
2018-04-24T09:16:21.329Z,20.50
2018-04-24T09:17:21.527Z,20.29
2018-04-24T09:18:21.729Z,20.65
2018-04-24T09:19:21.929Z,19.50
2018-04-24T09:20:22.131Z,19.27
2018-04-24T09:21:22.325Z,19.71
2018-04-24T09:22:22.524Z,19.92
2018-04-24T09:23:22.722Z,19.78
2018-04-24T09:24:22.921Z,19.38
2018-04-24T09:25:23.120Z,19.19
2018-04-24T09:26:23.321Z,19.20
2018-04-24T09:27:23.518Z,19.72
2018-04-24T09:28:23.717Z,19.79
2018-04-24T09:29:23.916Z,20.15
2018-04-24T09:30:24.116Z,20.26
2018-04-24T09:31:24.313Z,20.56
2018-04-24T09:32:24.511Z,20.71
2018-04-24T09:33:24.740Z,20.61
2018-04-24T09:34:24.909Z,20.64
2018-04-24T09:35:25.108Z,20.64
2018-04-24T09:36:25.306Z,20.67
2018-04-24T09:37:25.508Z,20.27
2018-04-24T09:38:25.704Z,20.63
2018-04-24T09:39:25.908Z,20.22
2018-04-24T09:40:26.103Z,20.17
2018-04-24T09:41:26.301Z,20.33
2018-04-24T09:42:26.500Z,20.63
2018-04-24T09:43:26.698Z,20.52
2018-04-24T09:44:26.901Z,20.83
2018-04-24T09:45:27.096Z,20.88
2018-04-24T09:46:27.294Z,21.10
2018-04-24T09:47:27.494Z,21.40
2018-04-24T09:48:27.690Z,20.56
2018-04-24T09:49:27.934Z,19.64
2018-04-24T09:50:28.087Z,19.42
2018-04-24T09:51:28.287Z,19.22
2018-04-24T09:52:28.486Z,19.56
2018-04-24T09:53:28.685Z,19.75
2018-04-24T09:54:28.884Z,20.32
2018-04-24T09:55:29.083Z,20.65
2018-04-24T09:56:29.285Z,21.00
2018-04-24T09:57:29.479Z,20.29
2018-04-24T09:58:29.677Z,20.50
2018-04-24T09:59:29.879Z,20.49
2018-04-24T10:00:30.075Z,19.71
2018-04-24T10:01:30.272Z,18.96
2018-04-24T10:02:30.474Z,18.88
2018-04-24T10:03:30.674Z,19.01
2018-04-24T10:04:30.871Z,19.22
2018-04-24T10:05:31.067Z,19.20
2018-04-24T10:06:31.264Z,18.61
2018-04-24T10:07:31.462Z,18.45
2018-04-24T10:08:31.661Z,18.71
2018-04-24T10:09:31.859Z,19.17
2018-04-24T10:10:32.056Z,19.41
2018-04-24T10:11:32.255Z,18.97
2018-04-24T10:12:32.451Z,19.12
2018-04-24T10:13:32.745Z,19.19
2018-04-24T10:14:32.848Z,19.00
2018-04-24T10:15:33.045Z,19.24
2018-04-24T10:16:33.243Z,19.44
2018-04-24T10:17:33.442Z,19.50
2018-04-24T10:18:33.637Z,19.22
2018-04-24T10:19:33.833Z,19.44
2018-04-24T10:20:34.031Z,19.37
2018-04-24T10:21:34.228Z,19.62
2018-04-24T10:22:34.424Z,20.14
2018-04-24T10:23:34.621Z,19.96
2018-04-24T10:24:34.819Z,20.25
2018-04-24T10:25:35.016Z,20.22
2018-04-24T10:26:35.215Z,20.50
2018-04-24T10:27:35.410Z,20.44
2018-04-24T10:28:35.606Z,19.52
2018-04-24T10:29:35.804Z,19.24
2018-04-24T10:30:36.001Z,19.22
2018-04-24T10:31:36.199Z,18.97
2018-04-24T10:32:36.396Z,18.83
2018-04-24T10:33:36.597Z,19.05
2018-04-24T10:34:36.790Z,19.32
2018-04-24T10:35:36.985Z,19.93
2018-04-24T10:36:37.183Z,20.37
2018-04-24T10:37:37.380Z,20.52
2018-04-24T10:38:37.575Z,20.46
2018-04-24T10:39:37.774Z,20.23
2018-04-24T10:40:37.970Z,20.41
2018-04-24T10:41:38.165Z,20.23
2018-04-24T10:42:38.361Z,20.15
2018-04-24T10:43:38.560Z,20.50
2018-04-24T10:44:38.756Z,20.37
2018-04-24T10:45:38.952Z,20.14
2018-04-24T10:46:39.152Z,20.12
2018-04-24T10:47:39.349Z,20.58
2018-04-24T10:48:39.545Z,20.55
2018-04-24T10:49:39.742Z,20.64
2018-04-24T10:50:39.939Z,20.82
2018-04-24T10:51:40.150Z,19.84
2018-04-24T10:52:40.332Z,19.89
2018-04-24T10:53:40.529Z,20.15
2018-04-24T10:54:40.728Z,19.92
2018-04-24T10:55:40.925Z,19.89
2018-04-24T10:56:41.122Z,20.39
2018-04-24T10:57:41.317Z,20.80
2018-04-24T10:58:41.513Z,21.23
2018-04-24T10:59:41.711Z,21.66
2018-04-24T11:00:42.003Z,21.43
2018-04-24T11:01:42.104Z,21.58
2018-04-24T11:02:42.301Z,21.22
2018-04-24T11:03:42.499Z,21.56
2018-04-24T11:04:42.692Z,21.25
2018-04-24T11:05:42.889Z,21.26
2018-04-24T11:06:43.136Z,21.11
2018-04-24T11:07:43.283Z,20.98
2018-04-24T11:08:43.479Z,21.20
2018-04-24T11:09:43.677Z,21.07
2018-04-24T11:10:43.879Z,20.86
2018-04-24T11:11:44.068Z,21.23
2018-04-24T11:12:44.266Z,21.16
2018-04-24T11:13:44.465Z,20.68
2018-04-24T11:14:44.659Z,20.70
2018-04-24T11:15:44.855Z,20.80
2018-04-24T11:16:45.050Z,21.00
2018-04-24T11:17:45.247Z,20.82
2018-04-24T11:18:45.442Z,20.90
2018-04-24T11:19:45.638Z,20.90
2018-04-24T11:20:45.834Z,20.05
2018-04-24T11:21:46.034Z,20.23
2018-04-24T11:22:46.282Z,20.12
2018-04-24T11:23:46.420Z,20.11
2018-04-24T11:24:46.616Z,20.12
2018-04-24T11:25:46.812Z,20.14
2018-04-24T11:26:47.032Z,20.19
2018-04-24T11:27:47.205Z,20.30
2018-04-24T11:28:47.400Z,20.34
2018-04-24T11:29:47.597Z,20.65
2018-04-24T11:30:47.792Z,20.82
2018-04-24T11:31:47.990Z,21.05
2018-04-24T11:32:48.185Z,20.52
2018-04-24T11:33:48.381Z,20.68
2018-04-24T11:34:48.577Z,20.95
2018-04-24T11:35:48.773Z,20.50
2018-04-24T11:36:48.970Z,20.22
2018-04-24T11:37:49.165Z,20.52
2018-04-24T11:38:49.360Z,20.68
2018-04-24T11:39:49.559Z,20.50
2018-04-24T11:40:49.752Z,20.46
2018-04-24T11:41:49.949Z,20.11
2018-04-24T11:42:50.145Z,20.26
2018-04-24T11:43:50.361Z,20.39
2018-04-24T11:44:50.540Z,20.53
2018-04-24T11:45:50.731Z,20.53
2018-04-24T11:46:50.927Z,20.52
2018-04-24T11:47:51.120Z,20.18
2018-04-24T11:48:51.315Z,19.97
2018-04-24T11:49:51.510Z,19.90
2018-04-24T11:50:51.702Z,19.44
2018-04-24T11:51:51.899Z,19.41
2018-04-24T11:52:52.093Z,19.54
2018-04-24T11:53:52.288Z,19.82
2018-04-24T11:54:52.481Z,19.79
2018-04-24T11:55:52.676Z,19.56
2018-04-24T11:56:52.868Z,19.68
2018-04-24T11:57:53.062Z,19.63
2018-04-24T11:58:53.256Z,19.78
2018-04-24T11:59:53.449Z,19.86
2018-04-24T12:00:53.646Z,19.70
2018-04-24T12:01:53.841Z,19.68
2018-04-24T12:02:54.065Z,19.13
2018-04-24T12:03:54.226Z,19.15
2018-04-24T12:04:54.419Z,19.07
2018-04-24T12:05:54.614Z,18.91
2018-04-24T12:06:54.808Z,19.04
2018-04-24T12:07:55.003Z,19.20
2018-04-24T12:08:55.200Z,19.38
2018-04-24T12:09:55.390Z,19.42
2018-04-24T12:10:55.584Z,19.50
2018-04-24T12:11:55.778Z,19.54
2018-04-24T12:12:55.971Z,19.74
2018-04-24T12:13:56.164Z,19.38
2018-04-24T12:14:56.360Z,19.24
2018-04-24T12:15:56.554Z,19.47
2018-04-24T12:16:56.749Z,19.49
2018-04-24T12:17:56.941Z,19.26
2018-04-24T12:18:57.143Z,19.44
2018-04-24T12:19:57.332Z,19.63
2018-04-24T12:20:57.525Z,19.56
2018-04-24T12:21:57.716Z,19.70
2018-04-24T12:22:57.910Z,19.57
2018-04-24T12:23:58.106Z,19.35
2018-04-24T12:24:58.296Z,19.32
2018-04-24T12:25:58.490Z,19.54
2018-04-24T12:26:58.683Z,19.44
2018-04-24T12:27:58.876Z,19.54
2018-04-24T12:28:59.071Z,19.71
2018-04-24T12:29:59.262Z,19.96
2018-04-24T12:30:59.458Z,20.15
2018-04-24T12:31:59.652Z,19.56
2018-04-24T12:32:59.848Z,19.56
2018-04-24T12:34:00.041Z,19.34
2018-04-24T12:35:00.234Z,19.53
2018-04-24T12:36:00.428Z,19.84
2018-04-24T12:37:00.625Z,20.22
2018-04-24T12:38:00.822Z,20.36
2018-04-24T12:39:01.013Z,20.50
2018-04-24T12:40:01.201Z,20.27
2018-04-24T12:41:01.396Z,20.17
2018-04-24T12:42:01.598Z,20.41
2018-04-24T12:43:01.785Z,20.25
2018-04-24T12:44:01.977Z,19.94
2018-04-24T12:45:02.173Z,20.23
2018-04-24T12:46:02.366Z,20.22
2018-04-24T12:47:02.561Z,20.36
2018-04-24T12:48:02.753Z,20.23
2018-04-24T12:49:02.947Z,20.56
2018-04-24T12:50:03.143Z,20.71
2018-04-24T12:51:03.336Z,21.10
2018-04-24T12:52:03.529Z,21.32
2018-04-24T12:53:03.721Z,21.22
2018-04-24T12:54:03.920Z,21.58
2018-04-24T12:55:04.110Z,21.29
2018-04-24T12:56:04.306Z,20.82
2018-04-24T12:57:04.503Z,21.00
2018-04-24T12:58:04.695Z,21.18
2018-04-24T12:59:04.899Z,21.35
2018-04-24T13:00:05.082Z,20.97
2018-04-24T13:01:05.277Z,20.98
2018-04-24T13:02:05.469Z,21.13
2018-04-24T13:03:05.664Z,21.22
2018-04-24T13:04:05.858Z,21.03
2018-04-24T13:05:06.052Z,21.07